Time;durP1;ratioP1;P1;durP2;ratioP2;P2;SDS_P1;SDS_P2;PMS_P1;PMS_P2;Temp;Humidity;BMP_temperature;BMP_pressure;BME280_temperature;BME280_humidity;BME280_pressure;Samples;Min_cycle;Max_cycle;Signal;HPM_P1;HPM_P2
2023/01/07 00:00:14;;;;;;;27.40;25.90;;;;;;;;;;5097441;28;20445;-82
2023/01/07 00:02:41;;;;;;;26.03;24.20;;;;;;;;;;5099588;28;20440;-83
2023/01/07 00:05:08;;;;;;;25.40;24.10;;;;;;;;;;5100612;28;20968;-83
2023/01/07 00:07:35;;;;;;;26.47;25.00;;;;;;;;;;5100213;28;20463;-82
2023/01/07 00:10:04;;;;;;;26.03;24.63;;;;;;;;;;5101330;28;20449;-82
2023/01/07 00:12:31;;;;;;;26.80;25.40;;;;;;;;;;5100740;28;20476;-83
2023/01/07 00:14:58;;;;;;;26.83;25.53;;;;;;;;;;5100125;28;20455;-82
2023/01/07 00:17:25;;;;;;;25.80;24.50;;;;;;;;;;5100154;28;20971;-83
2023/01/07 00:19:52;;;;;;;26.47;25.07;;;;;;;;;;5100830;28;20502;-82
2023/01/07 00:22:19;;;;;;;26.87;25.47;;;;;;;;;;5100286;28;20419;-82
2023/01/07 00:24:47;;;;;;;25.13;23.93;;;;;;;;;;5099192;28;20484;-83
2023/01/07 00:27:15;;;;;;;24.97;23.57;;;;;;;;;;5100079;28;20447;-82
2023/01/07 00:29:42;;;;;;;24.30;23.10;;;;;;;;;;5099640;28;20520;-83
2023/01/07 00:32:09;;;;;;;24.57;23.30;;;;;;;;;;5099868;28;20467;-82
2023/01/07 00:34:37;;;;;;;24.40;23.20;;;;;;;;;;5099254;28;20425;-82
2023/01/07 00:39:49;;;;;;;24.07;22.80;;;;;;;;;;5099231;28;20506;-82
2023/01/07 00:45:02;;;;;;;24.07;22.87;;;;;;;;;;5099410;28;20437;-83
2023/01/07 00:47:29;;;;;;;24.30;23.13;;;;;;;;;;5099679;28;20439;-83
2023/01/07 00:49:56;;;;;;;23.70;22.60;;;;;;;;;;5100004;28;20493;-83
2023/01/07 00:52:23;;;;;;;25.10;23.60;;;;;;;;;;5099186;28;20462;-84
2023/01/07 00:54:50;;;;;;;23.90;22.70;;;;;;;;;;5099659;28;20986;-83
2023/01/07 00:57:18;;;;;;;24.60;23.40;;;;;;;;;;5099326;28;20593;-83
2023/01/07 00:59:45;;;;;;;24.27;23.07;;;;;;;;;;5100340;28;20504;-82
2023/01/07 01:02:12;;;;;;;24.27;22.87;;;;;;;;;;5100118;28;20443;-82
2023/01/07 01:04:39;;;;;;;24.40;23.00;;;;;;;;;;5099797;28;20945;-82
2023/01/07 01:07:06;;;;;;;24.00;22.80;;;;;;;;;;5099115;28;21041;-83
2023/01/07 01:09:33;;;;;;;24.47;23.27;;;;;;;;;;5099861;28;20423;-83
2023/01/07 01:12:00;;;;;;;24.10;22.90;;;;;;;;;;5099772;28;20443;-82
2023/01/07 01:14:28;;;;;;;24.37;23.13;;;;;;;;;;5098672;28;20433;-82
2023/01/07 01:16:55;;;;;;;23.60;22.40;;;;;;;;;;5099887;28;20483;-82
2023/01/07 01:19:22;;;;;;;22.70;21.60;;;;;;;;;;5099749;28;20427;-83
2023/01/07 01:21:49;;;;;;;23.90;22.70;;;;;;;;;;5098636;28;20888;-83
2023/01/07 01:24:16;;;;;;;24.03;22.73;;;;;;;;;;5098519;28;20453;-83
2023/01/07 01:26:43;;;;;;;24.03;22.80;;;;;;;;;;5099334;28;20476;-83
2023/01/07 01:29:10;;;;;;;23.70;22.50;;;;;;;;;;5099267;28;20433;-82
2023/01/07 01:31:39;;;;;;;23.20;22.00;;;;;;;;;;5099254;28;20472;-82
2023/01/07 01:34:06;;;;;;;23.60;22.30;;;;;;;;;;5098489;28;20476;-82
2023/01/07 01:36:33;;;;;;;24.53;23.33;;;;;;;;;;5098638;28;20492;-83
2023/01/07 01:39:00;;;;;;;23.60;22.33;;;;;;;;;;5099396;28;20925;-82
2023/01/07 01:41:27;;;;;;;23.93;22.70;;;;;;;;;;5099635;28;20448;-83
2023/01/07 01:43:54;;;;;;;23.20;22.00;;;;;;;;;;5098396;28;20828;-82
2023/01/07 01:46:24;;;;;;;22.93;21.83;;;;;;;;;;5098893;28;20473;-83
2023/01/07 01:48:56;;;;;;;22.10;21.00;;;;;;;;;;5100471;28;20428;-82
2023/01/07 01:51:24;;;;;;;23.90;22.70;;;;;;;;;;5099499;28;20419;-83
2023/01/07 01:53:52;;;;;;;23.23;22.00;;;;;;;;;;5098131;28;20986;-82
2023/01/07 01:56:20;;;;;;;23.33;22.13;;;;;;;;;;5098282;28;20473;-82
2023/01/07 01:58:48;;;;;;;24.30;23.00;;;;;;;;;;5098328;28;20465;-83
2023/01/07 02:01:16;;;;;;;23.63;22.40;;;;;;;;;;5098658;28;20824;-83
2023/01/07 02:03:43;;;;;;;25.73;24.30;;;;;;;;;;5098245;28;20448;-83
2023/01/07 02:06:15;;;;;;;24.20;22.97;;;;;;;;;;5098083;28;20951;-83
2023/01/07 02:08:42;;;;;;;24.53;23.23;;;;;;;;;;5098172;28;20472;-83
2023/01/07 02:11:14;;;;;;;23.87;22.67;;;;;;;;;;5098753;28;20442;-84
2023/01/07 02:13:50;;;;;;;23.90;22.70;;;;;;;;;;5097919;28;20888;-82
2023/01/07 02:16:19;;;;;;;23.47;22.17;;;;;;;;;;5098358;28;20494;-82
2023/01/07 02:18:55;;;;;;;24.00;22.83;;;;;;;;;;5098204;28;20517;-82
2023/01/07 02:21:30;;;;;;;24.70;23.20;;;;;;;;;;5097580;28;20463;-83
2023/01/07 02:24:18;;;;;;;22.90;21.70;;;;;;;;;;5097517;28;20426;-82
2023/01/07 02:27:00;;;;;;;23.20;22.00;;;;;;;;;;5098274;28;20504;-83
2023/01/07 02:29:42;;;;;;;22.13;21.03;;;;;;;;;;5097687;28;20435;-84
2023/01/07 02:32:19;;;;;;;22.40;21.20;;;;;;;;;;5095605;28;20478;-82
2023/01/07 02:34:52;;;;;;;23.43;22.23;;;;;;;;;;5097885;28;20861;-83
2023/01/07 02:37:20;;;;;;;23.33;22.17;;;;;;;;;;5097474;28;20453;-82
2023/01/07 02:39:54;;;;;;;21.93;20.93;;;;;;;;;;5096896;28;20968;-83
2023/01/07 02:42:24;;;;;;;22.70;21.60;;;;;;;;;;5097563;28;20440;-82
2023/01/07 02:44:56;;;;;;;23.00;21.90;;;;;;;;;;5096880;28;20392;-83
2023/01/07 02:47:27;;;;;;;22.97;21.77;;;;;;;;;;5097599;28;20424;-82
2023/01/07 02:49:54;;;;;;;22.53;21.40;;;;;;;;;;5097260;28;20447;-82
2023/01/07 02:52:23;;;;;;;22.40;21.30;;;;;;;;;;5096973;28;21004;-82
2023/01/07 02:54:52;;;;;;;22.67;21.57;;;;;;;;;;5097548;28;20437;-82
2023/01/07 02:57:29;;;;;;;21.47;20.37;;;;;;;;;;5096969;28;20987;-82
2023/01/07 03:00:03;;;;;;;22.27;20.97;;;;;;;;;;5097109;28;20968;-82
2023/01/07 03:02:40;;;;;;;21.40;20.40;;;;;;;;;;5098176;28;20426;-82
2023/01/07 03:05:12;;;;;;;22.53;21.43;;;;;;;;;;5097082;28;20411;-83
2023/01/07 03:07:43;;;;;;;21.77;20.77;;;;;;;;;;5097822;28;20471;-84
2023/01/07 03:10:14;;;;;;;22.77;21.57;;;;;;;;;;5096859;28;20468;-83
2023/01/07 03:12:43;;;;;;;22.00;20.90;;;;;;;;;;5097539;28;20465;-83
2023/01/07 03:15:13;;;;;;;22.97;21.73;;;;;;;;;;5096551;28;20834;-83
2023/01/07 03:17:43;;;;;;;22.20;21.10;;;;;;;;;;5097701;28;20472;-83
2023/01/07 03:20:12;;;;;;;21.97;20.87;;;;;;;;;;5097020;28;20494;-83
2023/01/07 03:22:39;;;;;;;21.10;20.10;;;;;;;;;;5096912;28;20428;-82
2023/01/07 03:25:07;;;;;;;20.60;19.60;;;;;;;;;;5097243;28;20554;-82
2023/01/07 03:27:35;;;;;;;20.30;19.40;;;;;;;;;;5097557;28;20472;-82
2023/01/07 03:30:03;;;;;;;20.90;19.90;;;;;;;;;;5097414;28;20475;-82
2023/01/07 03:32:33;;;;;;;20.90;19.90;;;;;;;;;;5097735;28;20521;-83
2023/01/07 03:35:01;;;;;;;20.60;19.70;;;;;;;;;;5096959;28;20478;-83
2023/01/07 03:37:28;;;;;;;20.30;19.30;;;;;;;;;;5099127;28;20455;-82
2023/01/07 03:39:55;;;;;;;21.70;20.60;;;;;;;;;;5100995;28;20517;-83
2023/01/07 03:42:44;;;;;;;20.53;19.50;;;;;;;;;;5101295;28;20976;-81
2023/01/07 03:45:12;;;;;;;20.60;19.60;;;;;;;;;;5100823;28;20440;-83
2023/01/07 03:47:41;;;;;;;22.53;21.23;;;;;;;;;;5100666;28;20584;-83
2023/01/07 03:50:10;;;;;;;21.23;20.23;;;;;;;;;;5101185;28;20449;-83
2023/01/07 03:52:37;;;;;;;21.70;20.57;;;;;;;;;;5101537;28;20459;-83
2023/01/07 03:55:04;;;;;;;21.30;20.30;;;;;;;;;;5101071;28;20449;-83
2023/01/07 03:57:32;;;;;;;21.00;20.00;;;;;;;;;;5100484;28;20472;-83
2023/01/07 03:59:59;;;;;;;20.97;19.97;;;;;;;;;;5101642;28;20445;-83
2023/01/07 04:02:26;;;;;;;22.17;21.07;;;;;;;;;;5100729;28;20415;-82
2023/01/07 04:04:53;;;;;;;21.70;20.60;;;;;;;;;;5100463;28;20456;-82
2023/01/07 04:07:21;;;;;;;22.10;21.10;;;;;;;;;;5100126;28;20466;-83
2023/01/07 04:09:49;;;;;;;21.23;20.23;;;;;;;;;;5100374;28;20504;-82
2023/01/07 04:12:16;;;;;;;21.33;20.33;;;;;;;;;;5099375;28;20532;-82
2023/01/07 04:14:43;;;;;;;21.87;20.77;;;;;;;;;;5099550;28;20494;-82
2023/01/07 04:17:10;;;;;;;20.43;19.43;;;;;;;;;;5100947;28;21007;-81
2023/01/07 04:19:37;;;;;;;20.80;19.80;;;;;;;;;;5100337;28;20433;-82
2023/01/07 04:22:04;;;;;;;20.73;19.73;;;;;;;;;;5099392;28;20457;-82
2023/01/07 04:24:33;;;;;;;19.73;18.80;;;;;;;;;;5099444;28;20472;-82
2023/01/07 04:27:00;;;;;;;21.20;20.10;;;;;;;;;;5099753;28;20472;-81
2023/01/07 04:29:27;;;;;;;20.30;19.40;;;;;;;;;;5100040;28;20509;-82
2023/01/07 04:31:54;;;;;;;20.80;19.80;;;;;;;;;;5100044;28;20445;-82
2023/01/07 04:34:21;;;;;;;20.93;19.93;;;;;;;;;;5098201;28;20550;-83
2023/01/07 04:36:48;;;;;;;20.20;19.20;;;;;;;;;;5099134;28;20897;-83
2023/01/07 04:39:16;;;;;;;20.43;19.43;;;;;;;;;;5099686;28;20445;-82
2023/01/07 04:41:45;;;;;;;20.33;19.23;;;;;;;;;;5099498;28;20470;-82
2023/01/07 04:44:14;;;;;;;20.80;19.70;;;;;;;;;;5099486;28;20415;-81
2023/01/07 04:46:41;;;;;;;21.00;19.90;;;;;;;;;;5099068;28;20525;-81
2023/01/07 04:49:08;;;;;;;21.50;20.50;;;;;;;;;;5098170;28;20827;-81
2023/01/07 04:51:35;;;;;;;22.10;21.00;;;;;;;;;;5099486;28;20480;-81
2023/01/07 04:54:02;;;;;;;21.20;20.20;;;;;;;;;;5098299;28;20475;-82
2023/01/07 04:56:29;;;;;;;22.37;21.27;;;;;;;;;;5099239;28;20857;-83
2023/01/07 04:58:57;;;;;;;21.93;20.70;;;;;;;;;;5098893;28;21036;-82
2023/01/07 05:01:24;;;;;;;21.00;20.00;;;;;;;;;;5098748;28;20944;-82
2023/01/07 05:03:51;;;;;;;20.50;19.40;;;;;;;;;;5098909;28;20473;-82
2023/01/07 05:06:18;;;;;;;21.87;20.77;;;;;;;;;;5098896;28;20501;-82
2023/01/07 05:08:45;;;;;;;21.97;20.87;;;;;;;;;;5098731;28;20465;-83
2023/01/07 05:11:14;;;;;;;21.30;20.20;;;;;;;;;;5098954;28;20521;-83
2023/01/07 05:13:41;;;;;;;20.63;19.63;;;;;;;;;;5098648;28;20451;-83
2023/01/07 05:16:09;;;;;;;20.60;19.60;;;;;;;;;;5098744;28;20464;-82
2023/01/07 05:18:36;;;;;;;21.63;20.10;;;;;;;;;;5099272;28;20424;-81
2023/01/07 05:21:04;;;;;;;22.90;21.60;;;;;;;;;;5098109;28;20496;-84
2023/01/07 05:23:30;;;;;;;20.90;19.90;;;;;;;;;;5098238;28;20425;-82
2023/01/07 05:25:57;;;;;;;21.10;19.80;;;;;;;;;;5098406;28;20526;-81
2023/01/07 05:28:24;;;;;;;21.00;20.00;;;;;;;;;;5099361;28;20419;-81
2023/01/07 05:30:51;;;;;;;21.00;20.00;;;;;;;;;;5097911;28;20411;-83
2023/01/07 05:33:20;;;;;;;20.63;19.53;;;;;;;;;;5098659;28;21469;-82
2023/01/07 05:35:48;;;;;;;21.50;20.50;;;;;;;;;;5098247;28;20449;-82
2023/01/07 05:38:15;;;;;;;20.80;19.67;;;;;;;;;;5098813;28;20440;-81
2023/01/07 05:40:42;;;;;;;21.00;19.93;;;;;;;;;;5098709;28;20415;-83
2023/01/07 05:43:10;;;;;;;22.27;21.17;;;;;;;;;;5098335;28;20505;-82
2023/01/07 05:45:37;;;;;;;21.60;20.60;;;;;;;;;;5098904;28;20479;-83
2023/01/07 05:48:04;;;;;;;22.40;21.20;;;;;;;;;;5097411;28;20468;-82
2023/01/07 05:50:32;;;;;;;22.30;21.20;;;;;;;;;;5097811;28;20431;-82
2023/01/07 05:52:59;;;;;;;22.00;21.00;;;;;;;;;;5097717;28;20512;-83
2023/01/07 05:55:26;;;;;;;22.00;20.90;;;;;;;;;;5098320;28;20444;-81
2023/01/07 05:57:53;;;;;;;22.20;20.90;;;;;;;;;;5098238;28;20460;-81
2023/01/07 06:00:20;;;;;;;22.50;21.40;;;;;;;;;;5097397;28;20495;-81
2023/01/07 06:02:47;;;;;;;21.60;20.50;;;;;;;;;;5096645;28;20828;-82
2023/01/07 06:05:14;;;;;;;21.10;20.10;;;;;;;;;;5097856;28;20452;-81
2023/01/07 06:07:43;;;;;;;21.63;20.53;;;;;;;;;;5098286;28;20443;-82
2023/01/07 06:10:10;;;;;;;22.40;21.20;;;;;;;;;;5098034;28;20479;-81
2023/01/07 06:12:37;;;;;;;22.20;21.00;;;;;;;;;;5097812;28;20448;-82
2023/01/07 06:15:05;;;;;;;21.63;20.53;;;;;;;;;;5096502;28;20451;-82
2023/01/07 06:17:32;;;;;;;22.53;21.30;;;;;;;;;;5097411;28;20844;-82
2023/01/07 06:20:00;;;;;;;21.57;20.57;;;;;;;;;;5097749;28;20488;-81
2023/01/07 06:22:27;;;;;;;21.90;20.80;;;;;;;;;;5097936;28;20435;-82
2023/01/07 06:24:55;;;;;;;22.10;21.00;;;;;;;;;;5096434;28;21025;-82
2023/01/07 06:27:22;;;;;;;21.63;20.63;;;;;;;;;;5097927;28;20447;-82
2023/01/07 06:29:49;;;;;;;21.53;20.43;;;;;;;;;;5098783;28;20460;-82
2023/01/07 06:32:16;;;;;;;20.87;19.80;;;;;;;;;;5099393;28;20439;-82
2023/01/07 06:34:43;;;;;;;21.50;20.37;;;;;;;;;;5097840;28;20553;-81
2023/01/07 06:37:10;;;;;;;21.20;20.10;;;;;;;;;;5097081;28;20548;-82
2023/01/07 06:39:37;;;;;;;22.03;20.83;;;;;;;;;;5097257;28;20811;-82
2023/01/07 06:42:05;;;;;;;21.33;20.20;;;;;;;;;;5097611;28;20433;-83
2023/01/07 06:44:32;;;;;;;21.73;20.10;;;;;;;;;;5096989;28;20416;-82
2023/01/07 06:46:59;;;;;;;20.63;19.60;;;;;;;;;;5097056;28;21014;-82
2023/01/07 06:49:26;;;;;;;21.20;20.00;;;;;;;;;;5097725;28;20433;-82
2023/01/07 06:51:53;;;;;;;21.33;20.33;;;;;;;;;;5097347;28;20514;-82
2023/01/07 06:54:20;;;;;;;21.10;20.00;;;;;;;;;;5097033;28;20485;-83
2023/01/07 06:56:47;;;;;;;21.47;20.17;;;;;;;;;;5096951;28;20476;-81
2023/01/07 06:59:16;;;;;;;21.23;20.13;;;;;;;;;;5096906;28;20794;-83
2023/01/07 07:01:43;;;;;;;20.10;19.00;;;;;;;;;;5097182;28;20427;-82
2023/01/07 07:04:10;;;;;;;21.80;20.20;;;;;;;;;;5096675;28;20502;-82
2023/01/07 07:06:37;;;;;;;21.40;20.20;;;;;;;;;;5096331;28;20466;-82
2023/01/07 07:09:04;;;;;;;21.23;19.90;;;;;;;;;;5096843;28;20437;-81
2023/01/07 07:11:31;;;;;;;20.30;19.20;;;;;;;;;;5097334;28;20263;-81
2023/01/07 07:13:58;;;;;;;21.97;20.70;;;;;;;;;;5101175;28;20532;-81
2023/01/07 07:16:27;;;;;;;21.43;20.33;;;;;;;;;;5100834;28;20497;-81
2023/01/07 07:18:54;;;;;;;21.10;20.10;;;;;;;;;;5100963;28;20444;-82
2023/01/07 07:21:21;;;;;;;21.30;20.10;;;;;;;;;;5100978;28;21011;-81
2023/01/07 07:23:48;;;;;;;21.30;20.10;;;;;;;;;;5100752;28;20429;-82
2023/01/07 07:26:15;;;;;;;21.93;20.63;;;;;;;;;;5100442;28;20480;-82
2023/01/07 07:28:43;;;;;;;25.83;24.13;;;;;;;;;;5101235;28;20426;-81
2023/01/07 07:31:10;;;;;;;25.10;23.50;;;;;;;;;;5101464;28;20452;-80
2023/01/07 07:33:39;;;;;;;23.27;21.97;;;;;;;;;;5100738;28;20477;-82
2023/01/07 07:36:06;;;;;;;24.27;22.50;;;;;;;;;;5100263;28;20995;-80
2023/01/07 07:38:33;;;;;;;23.13;21.90;;;;;;;;;;5100369;28;20423;-79
2023/01/07 07:41:01;;;;;;;21.60;20.50;;;;;;;;;;5100631;28;20426;-79
2023/01/07 07:43:28;;;;;;;20.23;19.23;;;;;;;;;;5099294;28;20464;-80
2023/01/07 07:45:55;;;;;;;21.77;20.67;;;;;;;;;;5100555;28;20552;-80
2023/01/07 07:48:22;;;;;;;24.00;22.50;;;;;;;;;;5100282;28;20481;-80
2023/01/07 07:50:52;;;;;;;21.67;20.67;;;;;;;;;;5099809;28;20412;-80
2023/01/07 07:53:19;;;;;;;20.20;19.20;;;;;;;;;;5099476;28;20529;-79
2023/01/07 07:55:46;;;;;;;18.90;18.00;;;;;;;;;;5100103;28;20439;-80
2023/01/07 07:58:13;;;;;;;18.10;17.30;;;;;;;;;;5099838;28;20424;-80
2023/01/07 08:00:40;;;;;;;18.63;17.80;;;;;;;;;;5100092;28;20444;-81
2023/01/07 08:03:07;;;;;;;18.63;17.80;;;;;;;;;;5099294;28;20423;-81
2023/01/07 08:05:34;;;;;;;18.60;17.70;;;;;;;;;;5099677;28;20440;-80
2023/01/07 08:08:03;;;;;;;19.00;18.10;;;;;;;;;;5099836;28;20415;-80
2023/01/07 08:10:30;;;;;;;18.60;17.70;;;;;;;;;;5098732;28;20447;-80
2023/01/07 08:12:57;;;;;;;18.50;17.70;;;;;;;;;;5099283;28;20591;-81
2023/01/07 08:15:24;;;;;;;18.33;17.43;;;;;;;;;;5100044;28;20459;-80
2023/01/07 08:17:57;;;;;;;18.30;17.30;;;;;;;;;;5099381;28;20464;-81
2023/01/07 08:20:24;;;;;;;17.87;16.77;;;;;;;;;;5099873;28;20406;-81
2023/01/07 08:22:51;;;;;;;16.73;15.87;;;;;;;;;;5098318;28;20958;-81
2023/01/07 08:25:19;;;;;;;17.07;15.90;;;;;;;;;;5099048;28;20753;-80
2023/01/07 08:27:46;;;;;;;17.33;16.50;;;;;;;;;;5098857;28;20513;-80
2023/01/07 08:30:13;;;;;;;16.70;16.00;;;;;;;;;;5099921;28;20448;-82
2023/01/07 08:32:40;;;;;;;17.03;16.23;;;;;;;;;;5099442;28;20440;-81
2023/01/07 08:35:08;;;;;;;16.93;16.23;;;;;;;;;;5098072;28;20463;-80
2023/01/07 08:37:35;;;;;;;17.07;16.30;;;;;;;;;;5098821;28;20477;-80
2023/01/07 08:40:03;;;;;;;16.93;16.23;;;;;;;;;;5098980;28;20431;-80
2023/01/07 08:42:31;;;;;;;17.40;16.60;;;;;;;;;;5099817;28;20449;-80
2023/01/07 08:44:58;;;;;;;17.23;16.37;;;;;;;;;;5097721;28;20435;-80
2023/01/07 08:47:26;;;;;;;17.83;16.93;;;;;;;;;;5098759;28;20497;-80
2023/01/07 08:49:53;;;;;;;18.43;17.53;;;;;;;;;;5099180;28;20877;-80
2023/01/07 08:52:21;;;;;;;17.50;16.70;;;;;;;;;;5099445;28;20842;-80
2023/01/07 08:54:48;;;;;;;17.10;16.30;;;;;;;;;;5097738;28;20492;-80
2023/01/07 08:57:16;;;;;;;17.73;16.87;;;;;;;;;;5098661;28;20509;-81
2023/01/07 08:59:44;;;;;;;16.93;16.20;;;;;;;;;;5098145;28;20465;-81
2023/01/07 09:02:13;;;;;;;17.57;16.77;;;;;;;;;;5100565;28;20819;-84
2023/01/07 09:04:40;;;;;;;17.50;16.70;;;;;;;;;;5099132;28;20509;-81
2023/01/07 09:07:07;;;;;;;17.03;16.23;;;;;;;;;;5098904;28;20528;-81
2023/01/07 09:09:34;;;;;;;17.30;16.60;;;;;;;;;;5099089;28;20485;-80
2023/01/07 09:12:01;;;;;;;17.07;16.33;;;;;;;;;;5099983;28;20427;-80
2023/01/07 09:14:28;;;;;;;17.73;16.93;;;;;;;;;;5098840;28;20451;-80
2023/01/07 09:16:57;;;;;;;16.97;16.27;;;;;;;;;;5097950;28;20833;-80
2023/01/07 09:19:24;;;;;;;18.13;17.33;;;;;;;;;;5099110;28;20427;-80
2023/01/07 09:21:51;;;;;;;17.57;16.67;;;;;;;;;;5099421;28;20464;-81
2023/01/07 09:24:18;;;;;;;18.10;17.20;;;;;;;;;;5098327;28;20415;-81
2023/01/07 09:26:45;;;;;;;17.50;16.57;;;;;;;;;;5098261;28;20500;-81
2023/01/07 09:29:12;;;;;;;17.77;16.97;;;;;;;;;;5100675;28;20456;-83
2023/01/07 09:31:39;;;;;;;17.77;16.90;;;;;;;;;;5100553;28;20427;-83
2023/01/07 09:34:08;;;;;;;17.40;16.60;;;;;;;;;;5099771;28;20463;-83
2023/01/07 09:36:35;;;;;;;17.27;16.43;;;;;;;;;;5099798;28;20465;-82
2023/01/07 09:39:02;;;;;;;17.73;16.60;;;;;;;;;;5101043;28;20421;-83
2023/01/07 09:41:32;;;;;;;17.07;16.37;;;;;;;;;;5101439;28;20502;-83
2023/01/07 09:44:04;;;;;;;17.30;16.50;;;;;;;;;;5098277;28;20498;-80
2023/01/07 09:46:31;;;;;;;17.80;17.00;;;;;;;;;;5099102;28;20438;-81
2023/01/07 09:49:00;;;;;;;17.43;16.50;;;;;;;;;;5098848;28;20502;-81
2023/01/07 09:51:30;;;;;;;16.73;15.93;;;;;;;;;;5099032;28;20920;-80
2023/01/07 09:53:59;;;;;;;16.90;16.20;;;;;;;;;;5098549;28;20505;-80
2023/01/07 09:56:28;;;;;;;16.97;16.17;;;;;;;;;;5098425;28;20465;-80
2023/01/07 09:58:56;;;;;;;16.97;16.17;;;;;;;;;;5098302;28;20427;-80
2023/01/07 10:01:26;;;;;;;17.30;16.50;;;;;;;;;;5098444;28;20453;-81
2023/01/07 10:03:59;;;;;;;17.57;16.77;;;;;;;;;;5098067;28;20431;-81
2023/01/07 10:06:31;;;;;;;17.20;16.40;;;;;;;;;;5098433;28;20439;-80
2023/01/07 10:09:06;;;;;;;17.43;16.57;;;;;;;;;;5098759;28;20825;-80
2023/01/07 10:11:45;;;;;;;17.60;16.80;;;;;;;;;;5097375;28;20513;-80
2023/01/07 10:14:33;;;;;;;17.97;17.07;;;;;;;;;;5097240;28;20520;-80
2023/01/07 10:17:05;;;;;;;18.10;17.00;;;;;;;;;;5091130;28;20465;-80
2023/01/07 10:19:35;;;;;;;17.70;16.90;;;;;;;;;;5097715;28;20833;-86
2023/01/07 10:22:05;;;;;;;18.10;17.17;;;;;;;;;;5097749;28;20446;-79
2023/01/07 10:24:35;;;;;;;18.23;17.23;;;;;;;;;;5097465;28;20408;-81
2023/01/07 10:27:05;;;;;;;17.67;16.83;;;;;;;;;;5098520;28;20431;-81
2023/01/07 10:29:35;;;;;;;17.90;17.00;;;;;;;;;;5098028;28;20468;-80
2023/01/07 10:32:07;;;;;;;17.70;16.80;;;;;;;;;;5098387;28;20427;-80
2023/01/07 10:34:36;;;;;;;17.50;16.70;;;;;;;;;;5097070;28;20448;-80
2023/01/07 10:37:06;;;;;;;17.57;16.77;;;;;;;;;;5097143;28;20447;-80
2023/01/07 10:39:41;;;;;;;17.23;16.43;;;;;;;;;;5098123;28;20473;-80
2023/01/07 10:42:13;;;;;;;17.20;16.40;;;;;;;;;;5098136;28;20448;-80
2023/01/07 10:44:58;;;;;;;16.53;15.73;;;;;;;;;;5098098;28;20404;-80
2023/01/07 10:47:34;;;;;;;16.93;16.13;;;;;;;;;;5097974;28;20969;-80
2023/01/07 10:50:08;;;;;;;17.60;16.70;;;;;;;;;;5097889;28;20448;-80
2023/01/07 10:52:43;;;;;;;17.57;16.77;;;;;;;;;;5098095;28;20449;-80
2023/01/07 10:55:18;;;;;;;17.90;17.10;;;;;;;;;;5096769;28;20828;-80
2023/01/07 10:57:45;;;;;;;17.30;16.50;;;;;;;;;;5097666;28;20802;-80
2023/01/07 11:00:14;;;;;;;17.40;16.60;;;;;;;;;;5096534;28;20461;-80
2023/01/07 11:02:44;;;;;;;18.07;17.17;;;;;;;;;;5097440;28;20432;-80
2023/01/07 11:05:12;;;;;;;17.10;16.30;;;;;;;;;;5096657;28;20462;-80
2023/01/07 11:07:42;;;;;;;17.40;16.60;;;;;;;;;;5097713;28;20503;-80
2023/01/07 11:10:13;;;;;;;17.63;16.83;;;;;;;;;;5097537;28;20415;-80
2023/01/07 11:12:43;;;;;;;17.93;17.10;;;;;;;;;;5114300;28;20423;-80
2023/01/07 11:15:16;;;;;;;18.87;17.87;;;;;;;;;;5113827;28;20484;-81
2023/01/07 11:17:46;;;;;;;18.77;17.80;;;;;;;;;;5110062;28;20473;-80
2023/01/07 11:20:13;;;;;;;18.00;17.10;;;;;;;;;;5097014;28;20490;-81
2023/01/07 11:22:40;;;;;;;17.93;17.03;;;;;;;;;;5097224;28;20435;-80
2023/01/07 11:25:27;;;;;;;17.93;17.03;;;;;;;;;;5094312;28;20419;-80
2023/01/07 11:28:02;;;;;;;18.07;17.17;;;;;;;;;;5076517;28;20437;-78
2023/01/07 11:30:29;;;;;;;17.47;16.57;;;;;;;;;;5074372;28;20912;-78
2023/01/07 11:32:58;;;;;;;18.37;17.40;;;;;;;;;;5075130;28;20872;-78
2023/01/07 11:35:27;;;;;;;17.60;16.70;;;;;;;;;;5074720;28;20813;-78
2023/01/07 11:37:54;;;;;;;17.97;17.07;;;;;;;;;;5075017;28;21024;-78
2023/01/07 11:40:22;;;;;;;17.30;16.40;;;;;;;;;;5074344;28;20474;-79
2023/01/07 11:42:50;;;;;;;18.17;17.00;;;;;;;;;;5074210;28;20444;-78
2023/01/07 11:45:20;;;;;;;17.90;17.00;;;;;;;;;;5073925;28;20942;-78
2023/01/07 11:47:55;;;;;;;18.23;17.33;;;;;;;;;;5074301;28;20444;-79
2023/01/07 11:50:24;;;;;;;18.80;17.70;;;;;;;;;;5074875;28;20400;-79
2023/01/07 11:53:01;;;;;;;18.93;18.00;;;;;;;;;;5074517;28;20469;-78
2023/01/07 11:55:28;;;;;;;18.40;17.50;;;;;;;;;;5075938;28;20842;-83
2023/01/07 11:57:56;;;;;;;18.77;17.87;;;;;;;;;;5076845;28;20952;-85
2023/01/07 12:00:24;;;;;;;19.27;18.30;;;;;;;;;;5082173;28;20471;-85
2023/01/07 12:03:05;;;;;;;18.83;17.93;;;;;;;;;;5080167;28;20967;-85
2023/01/07 12:05:32;;;;;;;19.00;18.00;;;;;;;;;;5079467;28;20424;-88
2023/01/07 12:07:59;;;;;;;19.17;18.27;;;;;;;;;;5080683;28;20425;-87
2023/01/07 12:10:27;;;;;;;19.13;18.23;;;;;;;;;;5080027;28;20467;-82
2023/01/07 12:12:54;;;;;;;19.37;18.37;;;;;;;;;;5079812;28;20458;-86
2023/01/07 12:15:23;;;;;;;19.17;18.17;;;;;;;;;;5080723;28;20452;-88
2023/01/07 12:18:08;;;;;;;19.40;18.40;;;;;;;;;;5081293;28;20535;-85
2023/01/07 12:20:48;;;;;;;18.93;18.03;;;;;;;;;;5083000;28;20450;-86
2023/01/07 12:23:19;;;;;;;20.50;19.40;;;;;;;;;;5078874;28;20510;-79
2023/01/07 12:25:52;;;;;;;19.70;18.70;;;;;;;;;;5081057;28;20429;-80
2023/01/07 12:28:23;;;;;;;20.00;18.90;;;;;;;;;;5079668;28;20982;-86
2023/01/07 12:31:01;;;;;;;20.13;19.13;;;;;;;;;;5083232;28;20418;-85
2023/01/07 12:33:38;;;;;;;20.10;19.10;;;;;;;;;;5104143;28;20444;-86
2023/01/07 12:36:09;;;;;;;19.07;18.10;;;;;;;;;;5103511;28;20488;-86
2023/01/07 12:38:39;;;;;;;19.23;18.23;;;;;;;;;;5103203;28;20435;-85
2023/01/07 12:41:10;;;;;;;19.63;18.73;;;;;;;;;;5102390;28;20806;-81
2023/01/07 12:43:39;;;;;;;20.23;19.00;;;;;;;;;;5101879;28;20449;-80
2023/01/07 12:46:07;;;;;;;19.43;18.43;;;;;;;;;;5102971;28;20955;-80
2023/01/07 12:48:41;;;;;;;19.13;18.20;;;;;;;;;;5102393;28;20454;-80
2023/01/07 12:51:12;;;;;;;20.00;19.00;;;;;;;;;;5104007;28;20455;-81
2023/01/07 12:53:41;;;;;;;19.57;18.57;;;;;;;;;;5102069;28;21243;-79
2023/01/07 12:56:12;;;;;;;19.60;18.50;;;;;;;;;;5101984;28;20493;-80
2023/01/07 12:58:43;;;;;;;19.77;18.77;;;;;;;;;;5102711;28;20498;-79
2023/01/07 13:01:15;;;;;;;19.67;18.67;;;;;;;;;;5097777;28;20400;-84
2023/01/07 13:03:49;;;;;;;19.40;18.40;;;;;;;;;;5106721;28;20490;-87
2023/01/07 13:06:18;;;;;;;19.20;18.20;;;;;;;;;;5110004;28;20460;-86
2023/01/07 13:08:49;;;;;;;19.80;18.80;;;;;;;;;;5109378;28;20506;-87
2023/01/07 13:12:41;;;;;;;20.23;19.23;;;;;;;;;;5107663;28;20508;-86
2023/01/07 13:14:14;;;;;;;20.80;19.70;;;;;;;;;;5107878;28;20412;-87
2023/01/07 13:16:41;;;;;;;19.67;18.77;;;;;;;;;;5107423;28;20450;-87
2023/01/07 13:19:10;;;;;;;20.50;19.40;;;;;;;;;;5107432;28;20419;-87
2023/01/07 13:21:37;;;;;;;20.10;19.00;;;;;;;;;;5107215;28;20461;-87
2023/01/07 13:24:16;;;;;;;21.53;20.33;;;;;;;;;;5107390;28;20384;-87
2023/01/07 13:26:47;;;;;;;20.70;19.67;;;;;;;;;;5107148;28;20497;-87
2023/01/07 13:29:28;;;;;;;20.43;19.43;;;;;;;;;;5106963;28;20434;-87
2023/01/07 13:32:03;;;;;;;21.20;20.10;;;;;;;;;;5103966;28;20427;-83
2023/01/07 13:34:40;;;;;;;20.10;19.10;;;;;;;;;;5104752;28;20445;-83
2023/01/07 13:37:16;;;;;;;19.40;18.50;;;;;;;;;;5104969;28;20458;-83
2023/01/07 13:39:55;;;;;;;19.67;18.67;;;;;;;;;;5104974;28;20433;-83
2023/01/07 13:42:30;;;;;;;20.60;19.50;;;;;;;;;;5104549;28;20515;-83
2023/01/07 13:45:01;;;;;;;20.47;19.20;;;;;;;;;;5104618;28;20415;-82
2023/01/07 13:47:37;;;;;;;20.40;19.30;;;;;;;;;;5104372;28;20924;-84
2023/01/07 13:50:06;;;;;;;20.97;19.87;;;;;;;;;;5104823;28;20419;-81
2023/01/07 13:52:33;;;;;;;21.67;20.50;;;;;;;;;;5103430;28;20855;-82
2023/01/07 13:55:01;;;;;;;20.90;19.60;;;;;;;;;;5103253;28;20495;-82
2023/01/07 13:57:44;;;;;;;20.63;19.50;;;;;;;;;;5103689;28;20468;-83
2023/01/07 14:00:30;;;;;;;21.07;19.93;;;;;;;;;;5104226;28;20812;-81
2023/01/07 14:02:58;;;;;;;20.23;19.17;;;;;;;;;;5103931;28;20476;-82
2023/01/07 14:05:27;;;;;;;21.33;20.13;;;;;;;;;;5104762;28;20473;-82
2023/01/07 14:07:56;;;;;;;21.63;20.53;;;;;;;;;;5104473;28;20541;-81
2023/01/07 14:10:26;;;;;;;20.70;19.60;;;;;;;;;;5103701;28;20465;-80
2023/01/07 14:13:04;;;;;;;23.20;21.90;;;;;;;;;;5103444;28;20456;-82
2023/01/07 14:15:40;;;;;;;20.40;19.30;;;;;;;;;;5104337;28;20461;-81
2023/01/07 14:18:25;;;;;;;21.87;20.67;;;;;;;;;;5103724;28;20917;-84
2023/01/07 14:20:57;;;;;;;22.37;21.10;;;;;;;;;;5104201;28;20485;-83
2023/01/07 14:23:29;;;;;;;23.30;22.00;;;;;;;;;;5104133;28;20518;-83
2023/01/07 14:26:10;;;;;;;22.23;20.93;;;;;;;;;;5105049;28;20468;-82
2023/01/07 14:28:56;;;;;;;22.70;21.30;;;;;;;;;;5105906;28;20444;-82
2023/01/07 14:31:24;;;;;;;23.33;21.93;;;;;;;;;;5098582;28;20525;-85
2023/01/07 14:33:52;;;;;;;20.60;19.47;;;;;;;;;;5098948;28;20476;-82